Flight Number: EUR2433 Duration: 1:15
Departure: Geneva Cointrin Airport (LSGG) at 07:30 Distance: 462 Nm
Arrival: Split (LDSP) at 08:45 Equipment: A321

Weather Information
Geneve-Cointrin, Switzerland (LSGG) 46-15N 006-08E 416M Feb 19, 2018 - 02:50 AM EST / 2018.02.19 0750 UTC
Wind: Variable at 1 MPH (1 KT):0
Visibility: greater than 7 mile(s):0
Sky conditions: mostly cloudy Temperature: 35 F (2 C) Dew Point: 28 F (-2 C) Relative Humidity: 74% Pressure (altimeter): 30.06 in. Hg (1018 hPa)
ob: LSGG 190750Z VRB01KT 9999 BKN023 02/M02 Q1018 NOSIG cycle: 8
Sunrise: 06:34 Sunset: 17:04 (UTC)

Split / Resnik, Croatia (LDSP) 43-32N 016-18E 21M Feb 19, 2018 - 02:30 AM EST / 2018.02.19 0730 UTC
Wind: from the NE (050 degrees) at 10 MPH (9 KT):0
Visibility: greater than 7 mile(s):0
Sky conditions: mostly cloudy Temperature: 46 F (8 C) Dew Point: 32 F (0 C) Relative Humidity: 56% Pressure (altimeter): 29.94 in. Hg (1014 hPa)
ob: LDSP 190730Z 05009KT 9999 BKN045 08/00 Q1014 NOSIG cycle: 7
Sunrise: 05:49 Sunset: 16:27 (UTC)

TAF:2018/02/19 06:27 TAF LDSP 190525Z 1906/2006 05008KT 9999 -RA FEW020 BKN040 TX09/1913Z TN04/1920Z PROB40 TEMPO 1911/2006 RA

Previous Pireps for this route
Date Aircraft Flight time Fuel used Landing rate On time
2016-04-06A32101.2812708-258No
2016-08-28A32101.419894-217No
(pireps marked green are flown by you)

Route map